sensor_id;sensor_type;location;lat;lon;timestamp;P1;durP1;ratioP1;P2;durP2;ratioP2
64598;SDS011;51008;51.504;11.548;2023-02-17T00:00:25;52.88;;;25.60;;
64598;SDS011;51008;51.504;11.548;2023-02-17T00:05:26;52.97;;;26.20;;
64598;SDS011;51008;51.504;11.548;2023-02-17T00:10:27;52.28;;;25.13;;
64598;SDS011;51008;51.504;11.548;2023-02-17T00:15:28;53.30;;;26.15;;
64598;SDS011;51008;51.504;11.548;2023-02-17T00:20:29;50.30;;;24.92;;
64598;SDS011;51008;51.504;11.548;2023-02-17T00:25:30;48.90;;;24.60;;
64598;SDS011;51008;51.504;11.548;2023-02-17T00:30:31;58.05;;;25.42;;
64598;SDS011;51008;51.504;11.548;2023-02-17T00:35:37;59.35;;;26.42;;
64598;SDS011;51008;51.504;11.548;2023-02-17T00:40:39;46.33;;;22.80;;
64598;SDS011;51008;51.504;11.548;2023-02-17T00:45:40;52.20;;;24.10;;
64598;SDS011;51008;51.504;11.548;2023-02-17T00:50:41;47.22;;;23.65;;
64598;SDS011;51008;51.504;11.548;2023-02-17T00:55:42;55.45;;;25.45;;
64598;SDS011;51008;51.504;11.548;2023-02-17T01:00:43;49.67;;;24.27;;
64598;SDS011;51008;51.504;11.548;2023-02-17T01:05:45;49.05;;;24.20;;
64598;SDS011;51008;51.504;11.548;2023-02-17T01:15:52;54.60;;;26.00;;
64598;SDS011;51008;51.504;11.548;2023-02-17T01:20:54;55.42;;;25.35;;
64598;SDS011;51008;51.504;11.548;2023-02-17T01:25:55;53.65;;;25.08;;
64598;SDS011;51008;51.504;11.548;2023-02-17T01:30:56;55.03;;;27.20;;
64598;SDS011;51008;51.504;11.548;2023-02-17T01:36:00;56.60;;;27.67;;
64598;SDS011;51008;51.504;11.548;2023-02-17T01:41:06;58.42;;;27.38;;
64598;SDS011;51008;51.504;11.548;2023-02-17T01:46:09;61.30;;;29.20;;
64598;SDS011;51008;51.504;11.548;2023-02-17T01:51:20;59.35;;;28.33;;
64598;SDS011;51008;51.504;11.548;2023-02-17T01:56:26;59.33;;;30.02;;
64598;SDS011;51008;51.504;11.548;2023-02-17T02:01:29;66.97;;;32.65;;
64598;SDS011;51008;51.504;11.548;2023-02-17T02:06:32;66.78;;;31.20;;
64598;SDS011;51008;51.504;11.548;2023-02-17T02:11:35;65.28;;;30.55;;
64598;SDS011;51008;51.504;11.548;2023-02-17T02:42:57;58.72;;;29.38;;
64598;SDS011;51008;51.504;11.548;2023-02-17T02:48:00;63.80;;;30.50;;
64598;SDS011;51008;51.504;11.548;2023-02-17T02:53:13;60.03;;;28.92;;
64598;SDS011;51008;51.504;11.548;2023-02-17T03:04:07;53.88;;;27.13;;
64598;SDS011;51008;51.504;11.548;2023-02-17T03:09:30;53.42;;;27.77;;
64598;SDS011;51008;51.504;11.548;2023-02-17T03:14:33;50.20;;;25.70;;
64598;SDS011;51008;51.504;11.548;2023-02-17T03:19:37;50.10;;;24.98;;
64598;SDS011;51008;51.504;11.548;2023-02-17T03:24:38;52.92;;;25.80;;
64598;SDS011;51008;51.504;11.548;2023-02-17T03:29:41;51.78;;;26.20;;
64598;SDS011;51008;51.504;11.548;2023-02-17T03:34:42;50.13;;;25.35;;
64598;SDS011;51008;51.504;11.548;2023-02-17T03:39:43;49.55;;;26.05;;
64598;SDS011;51008;51.504;11.548;2023-02-17T03:44:44;52.65;;;25.40;;
64598;SDS011;51008;51.504;11.548;2023-02-17T03:49:45;49.05;;;25.45;;
64598;SDS011;51008;51.504;11.548;2023-02-17T03:54:46;46.25;;;25.05;;
64598;SDS011;51008;51.504;11.548;2023-02-17T03:59:47;48.85;;;25.63;;
64598;SDS011;51008;51.504;11.548;2023-02-17T04:04:48;49.67;;;25.67;;
64598;SDS011;51008;51.504;11.548;2023-02-17T04:09:49;51.05;;;25.15;;
64598;SDS011;51008;51.504;11.548;2023-02-17T04:14:50;42.45;;;24.33;;
64598;SDS011;51008;51.504;11.548;2023-02-17T04:19:51;46.83;;;25.08;;
64598;SDS011;51008;51.504;11.548;2023-02-17T04:24:52;48.60;;;26.90;;
64598;SDS011;51008;51.504;11.548;2023-02-17T04:29:53;46.47;;;25.33;;
64598;SDS011;51008;51.504;11.548;2023-02-17T04:34:54;47.78;;;25.67;;
64598;SDS011;51008;51.504;11.548;2023-02-17T04:39:55;46.92;;;24.75;;
64598;SDS011;51008;51.504;11.548;2023-02-17T04:44:55;44.45;;;25.85;;
64598;SDS011;51008;51.504;11.548;2023-02-17T04:49:56;49.50;;;24.98;;
64598;SDS011;51008;51.504;11.548;2023-02-17T04:54:57;45.20;;;25.80;;
64598;SDS011;51008;51.504;11.548;2023-02-17T04:59:58;43.28;;;24.52;;
64598;SDS011;51008;51.504;11.548;2023-02-17T05:04:59;40.58;;;23.77;;
64598;SDS011;51008;51.504;11.548;2023-02-17T05:10:00;42.80;;;24.27;;
64598;SDS011;51008;51.504;11.548;2023-02-17T05:15:01;38.80;;;21.83;;
64598;SDS011;51008;51.504;11.548;2023-02-17T05:20:04;45.42;;;23.45;;
64598;SDS011;51008;51.504;11.548;2023-02-17T05:25:06;41.08;;;22.98;;
64598;SDS011;51008;51.504;11.548;2023-02-17T05:30:07;38.03;;;21.77;;
64598;SDS011;51008;51.504;11.548;2023-02-17T05:35:08;42.88;;;24.33;;
64598;SDS011;51008;51.504;11.548;2023-02-17T05:40:09;40.10;;;24.17;;
64598;SDS011;51008;51.504;11.548;2023-02-17T05:45:11;35.67;;;21.70;;
64598;SDS011;51008;51.504;11.548;2023-02-17T05:50:12;38.40;;;22.42;;
64598;SDS011;51008;51.504;11.548;2023-02-17T05:55:13;37.10;;;21.67;;
64598;SDS011;51008;51.504;11.548;2023-02-17T06:00:14;37.20;;;21.27;;
64598;SDS011;51008;51.504;11.548;2023-02-17T06:05:15;37.65;;;21.77;;
64598;SDS011;51008;51.504;11.548;2023-02-17T06:10:16;38.90;;;22.15;;
64598;SDS011;51008;51.504;11.548;2023-02-17T06:15:17;34.97;;;20.63;;
64598;SDS011;51008;51.504;11.548;2023-02-17T06:20:18;40.22;;;22.05;;
64598;SDS011;51008;51.504;11.548;2023-02-17T06:25:19;39.47;;;20.75;;
64598;SDS011;51008;51.504;11.548;2023-02-17T06:30:20;41.47;;;22.65;;
64598;SDS011;51008;51.504;11.548;2023-02-17T06:35:21;37.00;;;21.73;;
64598;SDS011;51008;51.504;11.548;2023-02-17T06:40:22;37.85;;;21.85;;
64598;SDS011;51008;51.504;11.548;2023-02-17T06:45:23;43.58;;;23.92;;
64598;SDS011;51008;51.504;11.548;2023-02-17T06:50:24;39.58;;;22.20;;
64598;SDS011;51008;51.504;11.548;2023-02-17T06:55:25;37.75;;;21.52;;
64598;SDS011;51008;51.504;11.548;2023-02-17T07:00:26;37.53;;;21.42;;
64598;SDS011;51008;51.504;11.548;2023-02-17T07:05:27;34.38;;;21.02;;
64598;SDS011;51008;51.504;11.548;2023-02-17T07:10:29;36.38;;;21.40;;
64598;SDS011;51008;51.504;11.548;2023-02-17T07:15:30;40.35;;;21.90;;
64598;SDS011;51008;51.504;11.548;2023-02-17T07:20:31;38.38;;;20.88;;
64598;SDS011;51008;51.504;11.548;2023-02-17T07:25:32;36.53;;;20.05;;
64598;SDS011;51008;51.504;11.548;2023-02-17T07:30:38;40.83;;;21.77;;
64598;SDS011;51008;51.504;11.548;2023-02-17T07:35:41;35.97;;;20.63;;
64598;SDS011;51008;51.504;11.548;2023-02-17T07:40:45;35.85;;;20.70;;
64598;SDS011;51008;51.504;11.548;2023-02-17T07:45:46;40.63;;;20.10;;
64598;SDS011;51008;51.504;11.548;2023-02-17T07:50:47;37.70;;;19.85;;
64598;SDS011;51008;51.504;11.548;2023-02-17T07:55:48;29.65;;;17.95;;
64598;SDS011;51008;51.504;11.548;2023-02-17T08:00:50;33.08;;;17.95;;
64598;SDS011;51008;51.504;11.548;2023-02-17T08:05:50;31.25;;;17.75;;
64598;SDS011;51008;51.504;11.548;2023-02-17T08:10:51;30.90;;;17.52;;
64598;SDS011;51008;51.504;11.548;2023-02-17T08:15:52;30.80;;;17.15;;
64598;SDS011;51008;51.504;11.548;2023-02-17T08:20:53;32.08;;;16.63;;
64598;SDS011;51008;51.504;11.548;2023-02-17T08:25:57;28.17;;;16.05;;
64598;SDS011;51008;51.504;11.548;2023-02-17T08:30:58;29.00;;;16.40;;
64598;SDS011;51008;51.504;11.548;2023-02-17T08:36:04;25.15;;;14.63;;
64598;SDS011;51008;51.504;11.548;2023-02-17T08:41:20;30.58;;;14.95;;
64598;SDS011;51008;51.504;11.548;2023-02-17T08:46:23;29.60;;;15.50;;
64598;SDS011;51008;51.504;11.548;2023-02-17T08:51:25;25.70;;;14.55;;
64598;SDS011;51008;51.504;11.548;2023-02-17T08:56:26;22.80;;;13.02;;
64598;SDS011;51008;51.504;11.548;2023-02-17T09:01:28;22.02;;;13.40;;
64598;SDS011;51008;51.504;11.548;2023-02-17T09:11:33;19.35;;;11.77;;
64598;SDS011;51008;51.504;11.548;2023-02-17T09:16:35;20.60;;;11.02;;
64598;SDS011;51008;51.504;11.548;2023-02-17T09:21:36;18.05;;;10.88;;
64598;SDS011;51008;51.504;11.548;2023-02-17T09:26:37;19.05;;;10.75;;
64598;SDS011;51008;51.504;11.548;2023-02-17T09:31:38;19.30;;;10.45;;
64598;SDS011;51008;51.504;11.548;2023-02-17T09:36:39;17.73;;;10.18;;
64598;SDS011;51008;51.504;11.548;2023-02-17T09:41:42;20.38;;;10.55;;
64598;SDS011;51008;51.504;11.548;2023-02-17T09:47:01;17.50;;;9.73;;
64598;SDS011;51008;51.504;11.548;2023-02-17T09:52:13;14.65;;;9.32;;
64598;SDS011;51008;51.504;11.548;2023-02-17T09:57:20;15.18;;;9.18;;
64598;SDS011;51008;51.504;11.548;2023-02-17T10:07:45;13.77;;;8.63;;
64598;SDS011;51008;51.504;11.548;2023-02-17T10:12:51;15.15;;;7.97;;
64598;SDS011;51008;51.504;11.548;2023-02-17T10:17:57;12.15;;;7.20;;
64598;SDS011;51008;51.504;11.548;2023-02-17T10:23:15;12.55;;;7.45;;
64598;SDS011;51008;51.504;11.548;2023-02-17T10:28:42;11.65;;;6.35;;
64598;SDS011;51008;51.504;11.548;2023-02-17T10:34:03;10.35;;;6.82;;
64598;SDS011;51008;51.504;11.548;2023-02-17T10:39:27;10.13;;;6.60;;
64598;SDS011;51008;51.504;11.548;2023-02-17T10:44:50;11.07;;;6.85;;
64598;SDS011;51008;51.504;11.548;2023-02-17T10:49:53;14.83;;;6.30;;
64598;SDS011;51008;51.504;11.548;2023-02-17T10:54:58;10.57;;;6.43;;
64598;SDS011;51008;51.504;11.548;2023-02-17T11:00:01;10.60;;;6.53;;
64598;SDS011;51008;51.504;11.548;2023-02-17T11:05:04;11.82;;;7.15;;
64598;SDS011;51008;51.504;11.548;2023-02-17T11:15:44;13.00;;;6.80;;
64598;SDS011;51008;51.504;11.548;2023-02-17T11:20:46;12.20;;;7.25;;
64598;SDS011;51008;51.504;11.548;2023-02-17T11:25:55;12.38;;;6.53;;
64598;SDS011;51008;51.504;11.548;2023-02-17T11:30:58;9.93;;;6.55;;
64598;SDS011;51008;51.504;11.548;2023-02-17T11:36:00;11.10;;;6.43;;
64598;SDS011;51008;51.504;11.548;2023-02-17T11:41:02;11.75;;;6.90;;
64598;SDS011;51008;51.504;11.548;2023-02-17T11:46:14;12.43;;;5.93;;
64598;SDS011;51008;51.504;11.548;2023-02-17T12:08:22;8.90;;;5.60;;
64598;SDS011;51008;51.504;11.548;2023-02-17T12:34:58;9.63;;;5.43;;
64598;SDS011;51008;51.504;11.548;2023-02-17T12:45:37;7.05;;;4.47;;
64598;SDS011;51008;51.504;11.548;2023-02-17T12:56:13;8.85;;;4.93;;
64598;SDS011;51008;51.504;11.548;2023-02-17T13:01:28;7.28;;;4.15;;
64598;SDS011;51008;51.504;11.548;2023-02-17T13:06:33;8.77;;;4.40;;
64598;SDS011;51008;51.504;11.548;2023-02-17T13:11:39;7.25;;;5.07;;
64598;SDS011;51008;51.504;11.548;2023-02-17T13:16:43;8.18;;;4.93;;
64598;SDS011;51008;51.504;11.548;2023-02-17T13:21:52;8.93;;;4.30;;
64598;SDS011;51008;51.504;11.548;2023-02-17T13:26:53;8.45;;;5.00;;
64598;SDS011;51008;51.504;11.548;2023-02-17T13:31:55;10.75;;;4.38;;
64598;SDS011;51008;51.504;11.548;2023-02-17T13:36:59;7.30;;;4.38;;
64598;SDS011;51008;51.504;11.548;2023-02-17T13:42:02;7.95;;;4.78;;
64598;SDS011;51008;51.504;11.548;2023-02-17T13:52:16;6.35;;;4.03;;
64598;SDS011;51008;51.504;11.548;2023-02-17T13:57:26;7.82;;;4.28;;
64598;SDS011;51008;51.504;11.548;2023-02-17T14:02:31;7.85;;;4.30;;
64598;SDS011;51008;51.504;11.548;2023-02-17T14:07:33;7.22;;;4.05;;
64598;SDS011;51008;51.504;11.548;2023-02-17T14:12:34;7.38;;;3.83;;
64598;SDS011;51008;51.504;11.548;2023-02-17T14:17:35;7.00;;;3.80;;
64598;SDS011;51008;51.504;11.548;2023-02-17T14:22:36;6.75;;;3.88;;
64598;SDS011;51008;51.504;11.548;2023-02-17T14:27:44;7.60;;;3.65;;
64598;SDS011;51008;51.504;11.548;2023-02-17T14:32:48;4.78;;;3.35;;
64598;SDS011;51008;51.504;11.548;2023-02-17T14:37:49;5.68;;;3.47;;
64598;SDS011;51008;51.504;11.548;2023-02-17T14:42:50;6.72;;;3.30;;
64598;SDS011;51008;51.504;11.548;2023-02-17T14:47:51;5.05;;;3.60;;
64598;SDS011;51008;51.504;11.548;2023-02-17T14:52:52;5.28;;;3.05;;
64598;SDS011;51008;51.504;11.548;2023-02-17T14:57:53;7.35;;;3.10;;
64598;SDS011;51008;51.504;11.548;2023-02-17T15:02:54;4.75;;;2.70;;
64598;SDS011;51008;51.504;11.548;2023-02-17T15:07:55;4.97;;;2.95;;
64598;SDS011;51008;51.504;11.548;2023-02-17T15:12:59;5.55;;;3.08;;
64598;SDS011;51008;51.504;11.548;2023-02-17T15:18:00;6.65;;;3.40;;
64598;SDS011;51008;51.504;11.548;2023-02-17T15:23:01;4.22;;;2.30;;
64598;SDS011;51008;51.504;11.548;2023-02-17T15:28:02;6.18;;;2.72;;
64598;SDS011;51008;51.504;11.548;2023-02-17T15:33:03;4.68;;;2.70;;
64598;SDS011;51008;51.504;11.548;2023-02-17T15:38:10;6.38;;;2.70;;
64598;SDS011;51008;51.504;11.548;2023-02-17T15:43:16;4.10;;;2.13;;
64598;SDS011;51008;51.504;11.548;2023-02-17T15:53:24;6.40;;;2.80;;
64598;SDS011;51008;51.504;11.548;2023-02-17T15:58:25;7.75;;;2.90;;
64598;SDS011;51008;51.504;11.548;2023-02-17T16:03:27;7.93;;;3.22;;
64598;SDS011;51008;51.504;11.548;2023-02-17T16:08:28;6.63;;;3.65;;
64598;SDS011;51008;51.504;11.548;2023-02-17T16:13:29;6.10;;;3.90;;
64598;SDS011;51008;51.504;11.548;2023-02-17T16:18:30;8.80;;;4.00;;
64598;SDS011;51008;51.504;11.548;2023-02-17T16:23:31;7.80;;;4.47;;
64598;SDS011;51008;51.504;11.548;2023-02-17T16:28:32;7.70;;;4.88;;
64598;SDS011;51008;51.504;11.548;2023-02-17T16:33:33;8.38;;;5.32;;
64598;SDS011;51008;51.504;11.548;2023-02-17T16:38:34;6.85;;;4.53;;
64598;SDS011;51008;51.504;11.548;2023-02-17T16:43:35;8.20;;;5.10;;
64598;SDS011;51008;51.504;11.548;2023-02-17T16:48:36;8.50;;;5.10;;
64598;SDS011;51008;51.504;11.548;2023-02-17T16:53:37;8.13;;;4.68;;
64598;SDS011;51008;51.504;11.548;2023-02-17T16:58:38;8.32;;;4.95;;
64598;SDS011;51008;51.504;11.548;2023-02-17T17:03:40;8.27;;;4.82;;
64598;SDS011;51008;51.504;11.548;2023-02-17T17:08:42;8.40;;;4.95;;
64598;SDS011;51008;51.504;11.548;2023-02-17T17:13:43;6.63;;;4.38;;
64598;SDS011;51008;51.504;11.548;2023-02-17T17:18:45;7.28;;;4.13;;
64598;SDS011;51008;51.504;11.548;2023-02-17T17:23:46;6.10;;;3.88;;
64598;SDS011;51008;51.504;11.548;2023-02-17T17:28:47;5.35;;;3.17;;
64598;SDS011;51008;51.504;11.548;2023-02-17T17:33:48;5.35;;;3.40;;
64598;SDS011;51008;51.504;11.548;2023-02-17T17:38:50;6.78;;;3.90;;
64598;SDS011;51008;51.504;11.548;2023-02-17T17:43:52;5.07;;;3.15;;
64598;SDS011;51008;51.504;11.548;2023-02-17T17:48:55;6.38;;;3.20;;
64598;SDS011;51008;51.504;11.548;2023-02-17T17:53:59;6.47;;;3.15;;
64598;SDS011;51008;51.504;11.548;2023-02-17T17:59:01;5.05;;;3.00;;
64598;SDS011;51008;51.504;11.548;2023-02-17T18:04:03;5.10;;;2.58;;
64598;SDS011;51008;51.504;11.548;2023-02-17T18:09:05;5.43;;;3.03;;
64598;SDS011;51008;51.504;11.548;2023-02-17T18:14:10;6.35;;;3.55;;
64598;SDS011;51008;51.504;11.548;2023-02-17T18:19:13;5.30;;;3.60;;
64598;SDS011;51008;51.504;11.548;2023-02-17T18:24:16;7.60;;;4.28;;
64598;SDS011;51008;51.504;11.548;2023-02-17T18:29:18;11.80;;;4.50;;
64598;SDS011;51008;51.504;11.548;2023-02-17T18:34:19;7.22;;;4.35;;
64598;SDS011;51008;51.504;11.548;2023-02-17T18:39:20;7.60;;;4.35;;
64598;SDS011;51008;51.504;11.548;2023-02-17T18:44:21;6.90;;;4.50;;
64598;SDS011;51008;51.504;11.548;2023-02-17T18:49:22;8.05;;;4.30;;
64598;SDS011;51008;51.504;11.548;2023-02-17T18:54:23;7.45;;;4.97;;
64598;SDS011;51008;51.504;11.548;2023-02-17T18:59:24;6.90;;;4.65;;
64598;SDS011;51008;51.504;11.548;2023-02-17T19:04:25;10.77;;;4.68;;
64598;SDS011;51008;51.504;11.548;2023-02-17T19:09:29;8.82;;;5.22;;
64598;SDS011;51008;51.504;11.548;2023-02-17T19:14:31;8.70;;;5.22;;
64598;SDS011;51008;51.504;11.548;2023-02-17T19:19:36;8.20;;;5.47;;
64598;SDS011;51008;51.504;11.548;2023-02-17T19:24:38;10.57;;;5.75;;
64598;SDS011;51008;51.504;11.548;2023-02-17T19:29:40;11.50;;;6.80;;
64598;SDS011;51008;51.504;11.548;2023-02-17T19:34:41;11.75;;;6.72;;
64598;SDS011;51008;51.504;11.548;2023-02-17T19:39:42;12.57;;;7.50;;
64598;SDS011;51008;51.504;11.548;2023-02-17T19:44:44;12.85;;;7.90;;
64598;SDS011;51008;51.504;11.548;2023-02-17T19:49:45;13.93;;;8.35;;
64598;SDS011;51008;51.504;11.548;2023-02-17T19:54:47;14.23;;;8.38;;
64598;SDS011;51008;51.504;11.548;2023-02-17T19:59:49;14.32;;;7.82;;
64598;SDS011;51008;51.504;11.548;2023-02-17T20:04:50;14.23;;;8.45;;
64598;SDS011;51008;51.504;11.548;2023-02-17T20:09:50;12.70;;;7.85;;
64598;SDS011;51008;51.504;11.548;2023-02-17T20:14:52;12.82;;;8.50;;
64598;SDS011;51008;51.504;11.548;2023-02-17T20:19:53;18.73;;;9.13;;
64598;SDS011;51008;51.504;11.548;2023-02-17T20:24:54;16.08;;;8.20;;
64598;SDS011;51008;51.504;11.548;2023-02-17T20:29:56;12.40;;;7.70;;
64598;SDS011;51008;51.504;11.548;2023-02-17T20:34:59;14.00;;;8.02;;
64598;SDS011;51008;51.504;11.548;2023-02-17T20:40:00;15.63;;;9.05;;
64598;SDS011;51008;51.504;11.548;2023-02-17T20:45:01;15.85;;;8.55;;
64598;SDS011;51008;51.504;11.548;2023-02-17T20:50:02;15.07;;;8.52;;
64598;SDS011;51008;51.504;11.548;2023-02-17T20:55:04;13.38;;;8.40;;
64598;SDS011;51008;51.504;11.548;2023-02-17T21:00:05;15.65;;;9.10;;
64598;SDS011;51008;51.504;11.548;2023-02-17T21:05:12;16.45;;;9.70;;
64598;SDS011;51008;51.504;11.548;2023-02-17T21:10:15;17.33;;;9.43;;
64598;SDS011;51008;51.504;11.548;2023-02-17T21:15:22;14.73;;;7.72;;
64598;SDS011;51008;51.504;11.548;2023-02-17T21:20:23;11.43;;;6.95;;
64598;SDS011;51008;51.504;11.548;2023-02-17T21:25:24;12.65;;;6.30;;
64598;SDS011;51008;51.504;11.548;2023-02-17T21:30:28;10.32;;;4.43;;
64598;SDS011;51008;51.504;11.548;2023-02-17T21:35:29;10.65;;;3.75;;
64598;SDS011;51008;51.504;11.548;2023-02-17T21:40:30;6.80;;;3.10;;
64598;SDS011;51008;51.504;11.548;2023-02-17T21:45:35;5.53;;;2.60;;
64598;SDS011;51008;51.504;11.548;2023-02-17T21:50:36;8.43;;;3.45;;
64598;SDS011;51008;51.504;11.548;2023-02-17T21:55:37;5.38;;;2.63;;
64598;SDS011;51008;51.504;11.548;2023-02-17T22:00:38;12.27;;;3.40;;
64598;SDS011;51008;51.504;11.548;2023-02-17T22:05:39;8.98;;;3.15;;
64598;SDS011;51008;51.504;11.548;2023-02-17T22:10:41;11.30;;;3.25;;
64598;SDS011;51008;51.504;11.548;2023-02-17T22:15:42;9.27;;;2.38;;
64598;SDS011;51008;51.504;11.548;2023-02-17T22:20:43;8.80;;;2.42;;
64598;SDS011;51008;51.504;11.548;2023-02-17T22:25:44;8.23;;;2.38;;
64598;SDS011;51008;51.504;11.548;2023-02-17T22:30:49;8.95;;;1.83;;
64598;SDS011;51008;51.504;11.548;2023-02-17T22:36:01;6.75;;;1.30;;
64598;SDS011;51008;51.504;11.548;2023-02-17T22:41:05;2.20;;;0.90;;
64598;SDS011;51008;51.504;11.548;2023-02-17T22:46:07;3.97;;;1.30;;
64598;SDS011;51008;51.504;11.548;2023-02-17T22:51:11;5.00;;;1.02;;
64598;SDS011;51008;51.504;11.548;2023-02-17T22:56:14;4.10;;;1.05;;
64598;SDS011;51008;51.504;11.548;2023-02-17T23:01:16;7.50;;;1.20;;
64598;SDS011;51008;51.504;11.548;2023-02-17T23:11:25;6.38;;;1.20;;
64598;SDS011;51008;51.504;11.548;2023-02-17T23:16:28;5.90;;;1.33;;
64598;SDS011;51008;51.504;11.548;2023-02-17T23:21:29;11.82;;;2.00;;
64598;SDS011;51008;51.504;11.548;2023-02-17T23:26:30;7.47;;;2.15;;
64598;SDS011;51008;51.504;11.548;2023-02-17T23:31:31;7.40;;;1.63;;
64598;SDS011;51008;51.504;11.548;2023-02-17T23:36:33;7.60;;;1.50;;
64598;SDS011;51008;51.504;11.548;2023-02-17T23:41:35;5.60;;;1.50;;
64598;SDS011;51008;51.504;11.548;2023-02-17T23:46:37;12.15;;;1.70;;
64598;SDS011;51008;51.504;11.548;2023-02-17T23:51:39;10.07;;;1.42;;
64598;SDS011;51008;51.504;11.548;2023-02-17T23:56:41;7.78;;;1.55;;
